createdAt,value
2022-08-12T08:55:01.269Z,16.8
2022-08-12T09:00:01.133Z,18.1
2022-08-12T09:05:10.211Z,20.1
2022-08-12T09:10:01.846Z,25.9
2022-08-12T09:15:01.221Z,28.0
2022-08-12T09:20:01.230Z,33.3
2022-08-12T09:30:09.531Z,45.2
2022-08-12T09:35:01.272Z,56.9
2022-08-12T09:40:15.609Z,58.4
2022-08-12T09:45:03.689Z,71.6
2022-08-12T09:50:01.247Z,87.8
2022-08-12T09:55:02.540Z,100.2
2022-08-12T10:00:14.168Z,127.5
2022-08-12T10:05:01.256Z,158.2
2022-08-12T10:10:01.263Z,191.4
2022-08-12T10:15:01.379Z,217.9
2022-08-12T10:20:01.470Z,242.7
2022-08-12T10:25:01.666Z,256.4
2022-08-12T10:30:41.279Z,271.8
2022-08-12T10:35:01.206Z,282.6
2022-08-12T10:40:07.193Z,292.2
2022-08-12T10:45:01.518Z,306.0
2022-08-12T10:50:25.504Z,320.5
2022-08-12T10:55:01.161Z,336.4
2022-08-12T11:00:32.207Z,342.2
2022-08-12T11:07:04.203Z,344.9
2022-08-12T11:10:02.355Z,349.5
2022-08-12T11:15:01.258Z,335.3
2022-08-12T11:20:01.972Z,331.5
2022-08-12T11:30:01.621Z,340.8
2022-08-12T11:35:01.252Z,356.2
2022-08-12T11:40:01.258Z,368.8
2022-08-12T11:45:01.217Z,387.9
2022-08-12T11:50:01.384Z,394.1
2022-08-12T11:55:01.270Z,394.5
2022-08-12T12:20:01.760Z,394.0
2022-08-12T12:25:08.937Z,379.4
2022-08-12T12:30:14.285Z,383.4
2022-08-12T12:35:15.926Z,384.4
2022-08-12T12:40:01.640Z,387.1
2022-08-12T12:45:01.743Z,385.4
2022-08-12T12:50:01.621Z,392.0
2022-08-12T12:55:01.740Z,388.6
2022-08-12T13:00:01.606Z,382.2
2022-08-12T13:05:01.795Z,378.0
2022-08-12T13:10:01.933Z,375.6
2022-08-12T13:15:01.660Z,371.6
2022-08-12T13:20:01.593Z,376.6
2022-08-12T13:25:01.782Z,389.0
2022-08-12T13:30:04.052Z,391.2
2022-08-12T13:35:03.764Z,393.1
2022-08-12T13:40:01.579Z,398.1
2022-08-12T13:45:03.134Z,393.4
2022-08-12T13:50:01.757Z,383.0
2022-08-12T13:55:01.668Z,363.4
2022-08-12T14:00:01.715Z,357.5
2022-08-12T14:05:01.735Z,347.0
2022-08-12T14:10:01.634Z,346.5
2022-08-12T14:15:01.724Z,347.1
2022-08-12T14:20:01.597Z,364.5
2022-08-12T14:25:01.709Z,367.0
2022-08-12T14:30:05.298Z,370.4
2022-08-12T14:35:01.689Z,370.7
2022-08-12T14:40:01.630Z,372.5
2022-08-12T14:45:02.126Z,372.5
2022-08-12T14:50:34.561Z,374.6
2022-08-12T15:20:12.381Z,349.2
2022-08-12T15:25:01.356Z,352.1
2022-08-12T15:30:01.256Z,346.5
2022-08-12T15:35:01.259Z,343.8
2022-08-12T15:40:01.565Z,339.6
2022-08-12T15:45:01.443Z,334.7
2022-08-12T15:50:01.287Z,330.8
2022-08-12T15:55:05.250Z,331.8
2022-08-12T16:00:07.755Z,332.4
2022-08-12T16:05:01.342Z,337.0
2022-08-12T16:10:05.280Z,337.8
2022-08-12T16:15:01.511Z,333.8
2022-08-12T16:20:02.500Z,330.8
2022-08-12T16:25:01.244Z,331.2
2022-08-12T16:30:01.200Z,329.6
2022-08-12T16:35:01.631Z,305.1
2022-08-12T16:40:04.734Z,308.4
2022-08-12T16:45:01.862Z,311.9
2022-08-12T16:50:01.173Z,308.7
2022-08-12T16:55:01.233Z,302.9
2022-08-12T17:00:01.141Z,329.6
2022-08-12T17:05:03.462Z,326.7
2022-08-12T17:10:01.212Z,326.9
2022-08-12T17:20:16.984Z,343.9
2022-08-12T17:25:06.187Z,336.0
2022-08-12T17:30:04.006Z,319.5
2022-08-12T17:40:06.303Z,301.2
2022-08-12T17:45:01.115Z,275.8
2022-08-12T17:50:01.643Z,238.1
2022-08-12T17:55:01.224Z,222.4
2022-08-12T18:00:01.100Z,209.8
2022-08-12T18:05:05.605Z,207.4
2022-08-12T18:10:01.097Z,205.7
2022-08-12T18:15:01.229Z,202.4
2022-08-12T18:20:04.527Z,200.3
2022-08-12T18:25:02.523Z,199.1
2022-08-12T18:30:01.919Z,191.2
2022-08-12T18:35:10.183Z,184.9
2022-08-12T18:40:01.145Z,180.4
2022-08-12T18:50:01.163Z,181.4
2022-08-12T18:55:02.783Z,181.3
2022-08-12T19:00:06.639Z,188.4
2022-08-12T19:05:04.223Z,195.7
2022-08-12T19:30:06.686Z,230.6
2022-08-12T20:00:03.302Z,233.0
2022-08-12T20:06:04.207Z,241.6
2022-08-12T20:10:00.646Z,234.5
2022-08-12T20:15:00.909Z,226.4
2022-08-12T20:20:04.099Z,201.4
2022-08-12T20:25:01.178Z,154.8
2022-08-12T20:30:00.668Z,105.5
2022-08-12T20:35:00.759Z,61.9
2022-08-12T20:40:04.883Z,21.5
